Country
Station

 

Weather  for  Atlanta, Hartsfield Atlanta International Airport  -  United States    United States

  
18 °C (64 °F)
    
 
 

Current METAR for Atlanta, Hartsfield Atlanta International Airport is :

KATL 211752Z VRB03KT 10SM FEW070 18/07 A3024 RMK AO2 SLP240 T01830067 10183 20039 58012 $

 

This is a report for Atlanta, Hartsfield Atlanta International Airport - United States.
 
The report was made 14 minutes ago, at 17:52 UTC .
The wind was blowing at a speed of 1.5 meters per second (3.5 miles per hour) from variable directions.
 
The temperature was 18 °C (64 °F), with a dew-point at 7 °C (45 °F).
The atmospheric pressure was 1024 hPa (30.24 inHg).
The relative humidity was 48.5%.
 
There were a few clouds at a height of 2134 meters (7000 feet).
 
The overall visibility was 16.1 kilometers (10.0 miles).
 

 
 
 
 

Country :   A   B   C   D   E   F   G   H   I   J   K   L   M   N   O   P   Q   R   S   T   U   V   W   Y   Z

 

Site Info  |  Disclaimer  |  Credits  |  Privacy
Contact us  |  Add to favorites
© 2013-2018 METARs - All rights reserved